Time;durP1;ratioP1;P1;durP2;ratioP2;P2;SDS_P1;SDS_P2;PMS_P1;PMS_P2;Temp;Humidity;BMP_temperature;BMP_pressure;BME280_temperature;BME280_humidity;BME280_pressure;Samples;Min_cycle;Max_cycle;Signal;HPM_P1;HPM_P2
2023/06/23 00:01:00;;;;;;;13.40;4.70;;;;;;;18.96;61.51;99708.52;79766;1298;3013903;-72
2023/06/23 00:03:30;;;;;;;10.10;4.70;;;;;;;18.88;62.30;99705.52;79200;1295;3011726;-71
2023/06/23 00:05:57;;;;;;;10.20;4.80;;;;;;;18.75;63.23;99703.13;79642;1295;3011846;-72
2023/06/23 00:08:24;;;;;;;14.80;4.80;;;;;;;18.69;64.17;99706.01;79658;1295;3011653;-72
2023/06/23 00:10:52;;;;;;;9.90;4.50;;;;;;;18.59;64.20;99702.43;78583;1296;3052880;-67
2023/06/23 00:13:20;;;;;;;11.80;4.60;;;;;;;18.49;65.35;99702.83;79633;1301;3013169;-67
2023/06/23 00:15:46;;;;;;;8.10;3.80;;;;;;;18.40;65.87;99697.20;79702;1300;3011791;-68
2023/06/23 00:18:15;;;;;;;11.30;4.10;;;;;;;18.33;66.52;99694.13;78669;1299;3068893;-66
2023/06/23 00:20:42;;;;;;;11.10;3.70;;;;;;;18.27;66.58;99692.10;79551;1295;3013882;-66
2023/06/23 00:23:08;;;;;;;11.00;4.50;;;;;;;18.21;67.25;99688.43;79817;1295;3011581;-66
2023/06/23 00:25:37;;;;;;;15.60;4.50;;;;;;;18.18;67.23;99687.69;78445;1296;3053726;-66
2023/06/23 00:28:03;;;;;;;16.50;4.70;;;;;;;18.16;67.50;99677.39;79667;1301;3013288;-65
2023/06/23 00:30:30;;;;;;;9.80;4.10;;;;;;;18.07;67.95;99679.58;79621;1301;3011526;-66
2023/06/23 00:33:00;;;;;;;9.20;4.00;;;;;;;18.08;68.00;99679.51;78428;1296;3068658;-65
2023/06/23 00:35:27;;;;;;;14.20;4.90;;;;;;;18.05;68.20;99676.95;79467;1295;3013297;-66
2023/06/23 00:37:53;;;;;;;13.50;4.90;;;;;;;17.96;68.45;99677.01;79577;1296;3011607;-65
2023/06/23 00:40:24;;;;;;;9.00;4.50;;;;;;;17.89;68.79;99680.98;78248;1300;3026952;-67
2023/06/23 00:42:54;;;;;;;7.50;3.10;;;;;;;17.76;69.52;99675.65;79816;1300;3013447;-66
2023/06/23 00:45:25;;;;;;;8.10;3.70;;;;;;;18.21;68.64;99673.75;78280;1302;3052474;-67
2023/06/23 00:47:52;;;;;;;6.10;3.50;;;;;;;18.51;67.79;99679.38;79486;1296;3012895;-67
2023/06/23 00:50:20;;;;;;;9.10;3.60;;;;;;;18.48;68.40;99681.94;79702;1296;3013611;-67
2023/06/23 00:52:51;;;;;;;9.40;4.10;;;;;;;18.46;68.56;99678.97;78358;1301;3056554;-65
2023/06/23 00:55:20;;;;;;;10.30;4.70;;;;;;;18.37;68.88;99674.59;79859;1295;3011862;-66
2023/06/23 00:57:49;;;;;;;11.60;4.90;;;;;;;18.24;69.48;99677.35;78168;1302;3052189;-69
2023/06/23 01:00:18;;;;;;;9.00;4.80;;;;;;;18.22;69.98;99676.95;79728;1301;3013040;-66
2023/06/23 01:02:54;;;;;;;22.90;6.00;;;;;;;18.15;70.37;99674.98;78420;1301;3052421;-65
2023/06/23 01:05:23;;;;;;;15.70;6.10;;;;;;;17.98;71.68;99678.05;79461;1296;3012899;-64
2023/06/23 01:08:04;;;;;;;24.30;8.80;;;;;;;17.95;71.84;99680.31;78329;1297;3051153;-65
2023/06/23 01:10:39;;;;;;;15.70;7.50;;;;;;;17.96;72.32;99676.28;78549;1300;3058405;-66
2023/06/23 01:13:15;;;;;;;16.50;7.00;;;;;;;18.50;70.89;99676.23;79548;1295;3011900;-67
2023/06/23 01:15:52;;;;;;;20.00;9.80;;;;;;;18.96;68.64;99675.71;78379;1301;3054034;-66
2023/06/23 01:18:28;;;;;;;27.20;10.00;;;;;;;18.90;68.69;99675.70;78426;1295;3049749;-66
2023/06/23 01:21:01;;;;;;;21.90;8.70;;;;;;;18.81;69.34;99676.17;78385;1303;3052161;-66
2023/06/23 01:23:36;;;;;;;22.80;9.40;;;;;;;18.72;70.32;99675.69;79686;1301;3013141;-65
2023/06/23 01:26:09;;;;;;;26.40;10.80;;;;;;;18.57;71.00;99676.73;78276;1309;3069754;-65
2023/06/23 01:29:00;;;;;;;35.50;12.10;;;;;;;18.43;72.22;99676.53;79651;1295;3013230;-67
2023/06/23 01:32:00;;;;;;;24.90;11.00;;;;;;;18.25;73.15;99678.86;78541;1301;3058204;-65
2023/06/23 01:34:38;;;;;;;16.90;8.10;;;;;;;18.21;73.25;99678.13;78357;1295;3049705;-67
2023/06/23 01:37:10;;;;;;;16.50;6.60;;;;;;;18.15;74.51;99675.14;78325;1295;3053547;-67
2023/06/23 01:39:40;;;;;;;8.40;4.90;;;;;;;18.70;72.91;99676.79;79541;1296;3011901;-66
2023/06/23 01:42:10;;;;;;;12.20;5.60;;;;;;;19.11;71.04;99679.95;78465;1301;3052921;-65
2023/06/23 01:44:39;;;;;;;11.30;5.10;;;;;;;19.13;70.93;99680.54;79610;1301;3011834;-68
2023/06/23 01:47:13;;;;;;;11.80;4.60;;;;;;;18.85;71.72;99677.52;79163;1295;3013727;-67
2023/06/23 01:49:40;;;;;;;12.90;5.60;;;;;;;18.69;72.48;99682.70;79626;1300;3011930;-67
2023/06/23 01:52:08;;;;;;;10.30;5.50;;;;;;;18.48;73.47;99680.17;78403;1301;3058284;-65
2023/06/23 01:54:37;;;;;;;17.70;7.50;;;;;;;18.36;74.09;99675.60;79566;1300;3012469;-67
2023/06/23 01:57:04;;;;;;;14.60;5.20;;;;;;;18.18;74.54;99677.53;79597;1296;3011625;-68
2023/06/23 01:59:32;;;;;;;10.00;3.80;;;;;;;18.11;75.43;99679.61;78582;1301;3052641;-64
2023/06/23 02:01:58;;;;;;;12.30;4.30;;;;;;;18.30;74.38;99683.58;79396;1303;3013050;-65
2023/06/23 02:04:25;;;;;;;16.80;4.70;;;;;;;18.42;74.27;99681.10;79496;1299;3013180;-66
2023/06/23 02:06:53;;;;;;;9.50;4.10;;;;;;;18.48;74.01;99678.21;78271;1301;3028166;-66
2023/06/23 02:09:25;;;;;;;13.30;4.20;;;;;;;18.29;74.88;99677.23;79618;1296;3011826;-68
2023/06/23 02:11:53;;;;;;;14.00;4.40;;;;;;;18.11;75.88;99680.26;78323;1299;3049536;-66
2023/06/23 02:14:21;;;;;;;14.60;4.20;;;;;;;18.03;76.83;99678.90;79593;1311;3013691;-65
2023/06/23 02:16:52;;;;;;;21.20;4.20;;;;;;;17.91;77.49;99677.92;79142;1301;3011675;-65
2023/06/23 02:19:18;;;;;;;11.10;3.80;;;;;;;17.83;78.37;99681.98;79624;1301;3012989;-66
2023/06/23 02:21:45;;;;;;;16.60;3.80;;;;;;;18.19;77.26;99678.54;79525;1301;3011570;-65
2023/06/23 02:24:12;;;;;;;11.50;4.20;;;;;;;18.62;75.46;99677.16;78359;1301;3029617;-67
2023/06/23 02:26:39;;;;;;;8.80;3.80;;;;;;;18.57;75.01;99681.50;79555;1296;3012824;-69
2023/06/23 02:29:08;;;;;;;10.90;3.80;;;;;;;18.40;75.80;99684.64;79701;1296;3011868;-66
2023/06/23 02:31:36;;;;;;;12.10;4.10;;;;;;;18.32;76.12;99680.83;78439;1298;3054453;-66
2023/06/23 02:34:03;;;;;;;14.50;4.60;;;;;;;18.30;76.49;99681.27;79517;1301;3019302;-65
2023/06/23 02:36:31;;;;;;;10.80;4.50;;;;;;;18.22;76.66;99682.19;79387;1295;3011660;-65
2023/06/23 02:38:59;;;;;;;18.80;3.90;;;;;;;18.12;77.34;99689.04;78466;1298;3049087;-67
2023/06/23 02:41:26;;;;;;;14.20;3.30;;;;;;;18.58;76.01;99693.62;79505;1301;3014064;-70
2023/06/23 02:43:55;;;;;;;17.30;4.60;;;;;;;18.91;74.12;99688.05;79727;1300;3011428;-67
2023/06/23 02:46:31;;;;;;;19.90;7.80;;;;;;;18.83;74.40;99693.52;78260;1300;3053231;-69
2023/06/23 02:49:04;;;;;;;21.20;8.10;;;;;;;18.73;74.78;99698.67;79077;1297;3011806;-68
2023/06/23 02:51:30;;;;;;;36.80;12.40;;;;;;;18.51;75.84;99697.17;79705;1298;3011676;-67
2023/06/23 02:54:05;;;;;;;31.40;10.60;;;;;;;18.47;75.76;99698.57;78196;1302;3028915;-68
2023/06/23 02:56:41;;;;;;;31.00;9.90;;;;;;;18.34;76.71;99697.55;79244;1296;3013255;-68
2023/06/23 02:59:13;;;;;;;23.30;8.50;;;;;;;18.32;76.89;99696.02;79165;1295;3011831;-68
2023/06/23 03:01:48;;;;;;;22.80;7.70;;;;;;;18.66;75.91;99702.00;78922;1296;3013001;-69
2023/06/23 03:04:16;;;;;;;16.50;5.70;;;;;;;19.01;74.31;99698.63;79620;1295;3013231;-69
2023/06/23 03:06:44;;;;;;;10.30;4.30;;;;;;;18.90;74.33;99700.73;79599;1299;3011934;-69
2023/06/23 03:09:15;;;;;;;13.70;4.80;;;;;;;18.85;74.60;99704.73;78643;1301;3050468;-68
2023/06/23 03:11:42;;;;;;;16.00;4.70;;;;;;;18.68;75.34;99703.73;79477;1301;3013678;-69
2023/06/23 03:14:09;;;;;;;20.40;7.00;;;;;;;18.62;75.68;99708.52;79875;1298;3011671;-69
2023/06/23 03:16:46;;;;;;;18.20;6.30;;;;;;;18.53;75.96;99711.10;78247;1301;3050563;-67
2023/06/23 03:19:22;;;;;;;10.20;4.00;;;;;;;18.47;76.85;99707.73;78517;1302;3057672;-67
2023/06/23 03:21:56;;;;;;;14.80;6.20;;;;;;;18.84;74.97;99712.94;78271;1298;3049717;-67
2023/06/23 03:24:26;;;;;;;12.20;4.10;;;;;;;19.19;73.76;99707.42;79355;1296;3011934;-65
2023/06/23 03:26:56;;;;;;;16.80;5.40;;;;;;;19.14;73.57;99708.61;79624;1295;3012855;-66
2023/06/23 03:29:28;;;;;;;9.70;4.20;;;;;;;18.92;74.77;99703.94;79095;1296;3013149;-64
2023/06/23 03:31:55;;;;;;;11.40;4.30;;;;;;;18.86;74.82;99709.05;79634;1300;3011522;-65
2023/06/23 03:34:23;;;;;;;12.90;4.90;;;;;;;18.73;75.93;99713.07;78384;1299;3026801;-69
2023/06/23 03:36:49;;;;;;;10.20;3.90;;;;;;;18.73;75.88;99712.15;79553;1301;3013087;-71
2023/06/23 03:39:21;;;;;;;9.20;3.10;;;;;;;18.82;75.55;99708.00;79548;1296;3011688;-67
2023/06/23 03:41:48;;;;;;;10.30;3.80;;;;;;;19.46;73.69;99705.08;78704;1295;3048985;-66
2023/06/23 03:44:26;;;;;;;11.70;3.90;;;;;;;19.85;71.58;99704.52;79502;1295;3013734;-67
2023/06/23 03:47:03;;;;;;;11.10;4.80;;;;;;;19.88;71.29;99705.09;78178;1301;3054695;-67
2023/06/23 03:49:34;;;;;;;18.30;5.40;;;;;;;19.68;71.97;99702.39;78194;1301;3052461;-69
2023/06/23 03:52:01;;;;;;;13.30;5.30;;;;;;;19.50;72.80;99702.29;79509;1300;3013022;-67
2023/06/23 03:54:30;;;;;;;8.90;4.30;;;;;;;19.46;73.42;99699.30;78274;1301;3024933;-69
2023/06/23 03:56:56;;;;;;;14.30;4.90;;;;;;;19.43;73.36;99695.46;79411;1296;3012960;-67
2023/06/23 03:59:24;;;;;;;11.70;4.60;;;;;;;19.39;73.85;99692.95;79389;1300;3013370;-67
2023/06/23 04:01:52;;;;;;;11.10;4.30;;;;;;;19.44;73.81;99689.48;78169;1298;3029165;-69
2023/06/23 04:04:18;;;;;;;12.30;4.30;;;;;;;19.87;72.50;99690.04;79363;1301;3018757;-67
2023/06/23 04:06:45;;;;;;;18.80;5.60;;;;;;;20.22;71.05;99688.45;79353;1299;3011859;-67
2023/06/23 04:09:14;;;;;;;13.30;4.90;;;;;;;20.24;70.92;99685.13;78267;1295;3051796;-68
2023/06/23 04:11:41;;;;;;;14.40;4.70;;;;;;;20.26;70.92;99681.20;79665;1301;3012975;-68
2023/06/23 04:14:07;;;;;;;15.00;5.80;;;;;;;20.22;71.26;99681.35;79852;1296;3012070;-67
2023/06/23 04:16:37;;;;;;;20.60;8.00;;;;;;;20.19;71.56;99685.94;78604;1299;3026540;-68
2023/06/23 04:19:04;;;;;;;26.10;9.40;;;;;;;20.13;71.78;99685.64;79811;1298;3013435;-69
2023/06/23 04:21:31;;;;;;;26.20;9.90;;;;;;;20.20;72.01;99688.02;79763;1299;3011912;-72
2023/06/23 04:24:00;;;;;;;51.60;19.80;;;;;;;20.23;71.99;99690.50;78556;1300;3051044;-70
2023/06/23 04:26:27;;;;;;;47.20;17.20;;;;;;;20.40;71.59;99690.99;79520;1300;3013331;-69
2023/06/23 04:28:53;;;;;;;51.80;17.00;;;;;;;20.83;69.90;99691.95;79611;1295;3012872;-68
2023/06/23 04:31:21;;;;;;;37.70;12.30;;;;;;;21.01;69.16;99691.94;78583;1300;3049201;-68
2023/06/23 04:33:48;;;;;;;27.00;9.20;;;;;;;21.09;68.84;99687.59;79896;1295;3013413;-68
2023/06/23 04:36:15;;;;;;;20.40;7.60;;;;;;;21.14;68.92;99684.23;79706;1299;3013883;-69
2023/06/23 04:38:47;;;;;;;16.10;6.30;;;;;;;21.13;69.28;99690.55;78570;1299;3051152;-67
2023/06/23 04:41:17;;;;;;;16.90;6.40;;;;;;;21.17;69.45;99686.22;79951;1295;3011755;-68
2023/06/23 04:43:46;;;;;;;13.90;5.70;;;;;;;21.21;69.59;99686.54;78588;1296;3050694;-70
2023/06/23 04:46:16;;;;;;;13.30;4.80;;;;;;;21.15;69.74;99689.10;79710;1295;3015321;-68
2023/06/23 04:48:49;;;;;;;19.70;7.30;;;;;;;21.11;70.08;99690.02;78453;1301;3054363;-67
2023/06/23 04:51:16;;;;;;;23.70;9.40;;;;;;;21.06;70.39;99698.15;79509;1301;3011634;-71
2023/06/23 04:54:05;;;;;;;16.60;6.60;;;;;;;21.15;70.43;99690.04;79466;1296;3012676;-67
2023/06/23 04:56:34;;;;;;;18.40;5.90;;;;;;;21.73;68.63;99686.23;75803;1296;3057062;-68
2023/06/23 04:59:03;;;;;;;13.60;4.50;;;;;;;21.91;67.69;99680.99;79616;1295;3014925;-68
2023/06/23 05:01:31;;;;;;;21.80;6.80;;;;;;;21.96;67.91;99677.27;78602;1299;3050194;-68
2023/06/23 05:03:58;;;;;;;9.30;3.90;;;;;;;22.04;67.38;99679.77;79513;1301;3013856;-69
2023/06/23 05:06:24;;;;;;;6.60;2.70;;;;;;;21.91;67.92;99677.77;79675;1301;3011604;-69
2023/06/23 05:08:52;;;;;;;8.00;3.30;;;;;;;21.93;67.59;99675.81;78331;1301;3029238;-69
2023/06/23 05:11:19;;;;;;;9.90;3.30;;;;;;;21.75;68.24;99670.30;79608;1296;3012896;-69
2023/06/23 05:13:47;;;;;;;5.50;3.10;;;;;;;21.67;68.08;99676.00;79613;1295;3011615;-69
2023/06/23 05:16:14;;;;;;;10.80;3.20;;;;;;;21.53;68.04;99676.39;78423;1296;3049790;-68
2023/06/23 05:18:42;;;;;;;7.40;2.90;;;;;;;21.47;68.51;99674.65;79664;1298;3013354;-68
2023/06/23 05:21:08;;;;;;;6.40;2.90;;;;;;;21.43;68.43;99678.42;79764;1300;3011801;-67
2023/06/23 05:23:37;;;;;;;7.20;3.30;;;;;;;21.36;68.98;99673.84;78421;1295;3026361;-66
2023/06/23 05:26:05;;;;;;;14.90;3.80;;;;;;;21.36;69.20;99674.88;79724;1295;3013021;-66
2023/06/23 05:28:35;;;;;;;21.40;7.00;;;;;;;21.35;69.11;99670.13;79790;1295;3011564;-68
2023/06/23 05:31:04;;;;;;;10.00;4.20;;;;;;;21.85;67.91;99669.65;78602;1295;3049033;-69
2023/06/23 05:33:36;;;;;;;10.80;4.30;;;;;;;22.31;66.30;99665.77;79656;1301;3012144;-68
2023/06/23 05:36:04;;;;;;;10.40;3.60;;;;;;;22.51;65.21;99659.66;78464;1298;3067863;-68
2023/06/23 05:38:31;;;;;;;6.50;3.50;;;;;;;22.43;65.60;99657.30;79701;1295;3013501;-66
2023/06/23 05:40:58;;;;;;;8.60;3.20;;;;;;;22.40;65.50;99660.55;79757;1295;3012926;-67
2023/06/23 05:43:25;;;;;;;5.60;3.10;;;;;;;22.35;65.23;99653.69;78560;1295;3053965;-70
2023/06/23 05:45:52;;;;;;;7.90;3.20;;;;;;;22.27;65.56;99657.77;79739;1298;3013646;-72
2023/06/23 05:48:34;;;;;;;12.30;3.30;;;;;;;22.12;65.82;99654.91;79812;1298;3011703;-67
2023/06/23 05:51:01;;;;;;;4.80;2.80;;;;;;;22.20;65.87;99652.09;78624;1295;3069337;-69
2023/06/23 05:53:28;;;;;;;5.30;2.70;;;;;;;22.13;65.74;99660.69;79613;1296;3013270;-64
2023/06/23 05:56:08;;;;;;;5.80;2.60;;;;;;;22.08;66.11;99652.30;79540;1295;3011666;-67
2023/06/23 05:58:40;;;;;;;4.10;2.40;;;;;;;22.15;65.86;99652.73;78470;1295;3053005;-73
2023/06/23 18:21:53;;;;;;;8.10;5.20;;;;;;;26.65;46.73;99243.28;80128;1301;3013446;-69
2023/06/23 18:24:20;;;;;;;11.00;5.80;;;;;;;26.56;46.95;99252.63;79106;1304;3015162;-69
2023/06/23 18:26:47;;;;;;;12.60;5.60;;;;;;;26.49;46.89;99253.60;79142;1302;3011843;-70
2023/06/23 18:29:15;;;;;;;8.10;5.00;;;;;;;26.46;46.89;99255.79;77903;1306;3053028;-69
2023/06/23 18:31:47;;;;;;;12.60;6.00;;;;;;;26.39;47.06;99256.88;79180;1302;3013327;-71
2023/06/23 18:34:16;;;;;;;8.80;5.30;;;;;;;26.34;47.10;99259.60;75739;1307;3057211;-68
2023/06/23 18:36:43;;;;;;;9.40;5.60;;;;;;;26.29;47.32;99255.48;79451;1302;3014816;-67
2023/06/23 18:39:09;;;;;;;10.80;5.40;;;;;;;26.27;47.47;99251.53;79313;1299;3012246;-68
2023/06/23 18:41:39;;;;;;;7.50;5.30;;;;;;;26.21;47.44;99248.23;78137;1304;3051202;-69
2023/06/23 18:44:05;;;;;;;8.00;5.10;;;;;;;26.18;47.55;99255.30;79518;1300;3013198;-68
2023/06/23 18:46:33;;;;;;;9.00;5.30;;;;;;;26.11;47.78;99256.67;79464;1296;3011663;-69
2023/06/23 18:49:00;;;;;;;9.20;5.50;;;;;;;26.09;47.81;99255.50;78320;1295;3026602;-68
2023/06/23 18:51:27;;;;;;;9.90;5.60;;;;;;;26.06;47.93;99253.67;79453;1298;3013960;-69
2023/06/23 18:53:53;;;;;;;10.60;5.80;;;;;;;25.94;48.24;99254.61;79678;1295;3013141;-67
2023/06/23 18:56:21;;;;;;;11.80;5.70;;;;;;;26.00;48.28;99255.69;78267;1300;3028003;-68
2023/06/23 18:58:51;;;;;;;11.70;5.50;;;;;;;25.98;48.19;99256.46;79630;1298;3018566;-70
2023/06/23 19:01:20;;;;;;;13.30;5.00;;;;;;;25.92;48.45;99256.64;79097;1294;3013254;-70
2023/06/23 19:03:47;;;;;;;9.40;5.50;;;;;;;25.89;48.76;99252.84;79445;1295;3013613;-72
2023/06/23 19:06:13;;;;;;;10.30;5.80;;;;;;;25.95;48.51;99246.58;79615;1298;3011526;-70
2023/06/23 19:08:41;;;;;;;9.60;5.50;;;;;;;25.86;48.69;99254.65;78511;1298;3026451;-71
2023/06/23 19:11:08;;;;;;;10.90;5.60;;;;;;;25.82;48.99;99240.81;79431;1301;3013797;-70
2023/06/23 19:13:34;;;;;;;10.70;5.80;;;;;;;25.82;48.88;99239.94;79553;1300;3011233;-69
2023/06/23 19:16:02;;;;;;;16.80;6.40;;;;;;;25.77;49.06;99240.60;78187;1295;3026036;-70
2023/06/23 19:18:29;;;;;;;9.50;5.30;;;;;;;25.71;49.32;99236.71;79762;1296;3012942;-71
2023/06/23 19:20:56;;;;;;;10.50;5.50;;;;;;;25.70;49.34;99231.62;79551;1295;3013497;-72
2023/06/23 19:23:25;;;;;;;12.20;6.10;;;;;;;25.66;49.51;99230.60;78294;1298;3052749;-72
2023/06/23 19:25:52;;;;;;;10.90;5.70;;;;;;;25.66;49.48;99234.09;79380;1301;3013298;-68
2023/06/23 19:28:19;;;;;;;9.00;5.30;;;;;;;25.62;49.69;99232.10;79543;1308;3011795;-69
2023/06/23 19:30:48;;;;;;;14.90;5.10;;;;;;;25.57;50.00;99227.02;78383;1295;3069192;-70
2023/06/23 19:33:14;;;;;;;10.60;5.70;;;;;;;25.52;50.19;99226.45;79458;1296;3013731;-71
2023/06/23 19:35:41;;;;;;;12.20;5.80;;;;;;;25.53;50.09;99226.30;79398;1295;3012130;-69
2023/06/23 19:38:09;;;;;;;8.30;5.50;;;;;;;25.52;50.10;99230.67;78276;1298;3051759;-70
2023/06/23 19:40:35;;;;;;;12.50;5.60;;;;;;;25.43;50.43;99227.75;79469;1299;3013275;-71
2023/06/23 19:43:02;;;;;;;8.50;5.80;;;;;;;25.41;50.67;99221.75;79376;1301;3011841;-71
2023/06/23 19:45:31;;;;;;;11.70;5.80;;;;;;;25.40;50.61;99219.66;78402;1299;3027378;-71
2023/06/23 19:47:58;;;;;;;11.50;5.30;;;;;;;25.34;50.91;99211.66;79435;1297;3013697;-72
2023/06/23 19:50:24;;;;;;;10.90;5.40;;;;;;;25.32;50.90;99210.33;79449;1295;3013232;-68
2023/06/23 19:52:52;;;;;;;11.50;5.00;;;;;;;25.23;51.22;99208.50;78114;1301;3053818;-71
2023/06/23 19:55:19;;;;;;;14.60;5.90;;;;;;;25.23;51.14;99209.75;79429;1301;3013484;-69
2023/06/23 19:57:48;;;;;;;9.80;5.40;;;;;;;25.12;51.67;99214.61;79444;1301;3011819;-68
2023/06/23 20:00:17;;;;;;;10.00;5.90;;;;;;;25.15;51.70;99207.91;78191;1299;3068601;-69
2023/06/23 20:02:44;;;;;;;13.50;5.60;;;;;;;25.13;51.75;99207.64;79484;1295;3013150;-70
2023/06/23 20:05:11;;;;;;;16.60;5.50;;;;;;;25.06;51.89;99205.44;79394;1296;3011392;-68
2023/06/23 20:07:40;;;;;;;9.50;5.40;;;;;;;25.00;52.15;99210.34;78231;1295;3053929;-70
2023/06/23 20:10:07;;;;;;;9.80;5.00;;;;;;;25.01;52.07;99206.70;79610;1301;3013659;-68
2023/06/23 20:12:34;;;;;;;10.20;5.10;;;;;;;25.02;52.30;99204.16;79672;1298;3011478;-71
2023/06/23 20:15:04;;;;;;;9.90;5.50;;;;;;;24.99;52.36;99203.81;78218;1300;3027580;-68
2023/06/23 20:17:34;;;;;;;9.80;5.30;;;;;;;24.89;52.68;99201.53;79474;1299;3012788;-68
2023/06/23 20:20:04;;;;;;;11.70;5.50;;;;;;;24.89;52.74;99200.20;78237;1300;3056477;-70
2023/06/23 20:22:30;;;;;;;10.80;5.20;;;;;;;24.85;53.04;99195.61;79415;1295;3013176;-69
2023/06/23 20:24:57;;;;;;;12.40;5.60;;;;;;;24.80;53.14;99193.46;79509;1297;3013194;-68
2023/06/23 20:27:25;;;;;;;10.70;5.70;;;;;;;24.74;53.43;99196.95;78356;1300;3053107;-69
2023/06/23 20:29:51;;;;;;;8.40;5.50;;;;;;;24.70;53.60;99197.63;79418;1298;3011675;-70
2023/06/23 20:32:18;;;;;;;10.80;4.90;;;;;;;24.68;53.64;99194.44;79400;1299;3011531;-73
2023/06/23 20:34:46;;;;;;;11.00;5.60;;;;;;;24.64;53.76;99193.60;78290;1300;3026112;-70
2023/06/23 20:37:12;;;;;;;10.90;5.90;;;;;;;24.62;53.94;99187.41;79542;1296;3013579;-70
2023/06/23 20:39:39;;;;;;;10.40;5.90;;;;;;;24.60;53.92;99188.23;79538;1298;3011843;-68
2023/06/23 20:42:07;;;;;;;11.40;5.50;;;;;;;24.54;54.01;99192.68;78289;1300;3027496;-68
2023/06/23 20:44:34;;;;;;;11.10;5.80;;;;;;;24.51;54.04;99189.71;79504;1297;3013945;-70
2023/06/23 20:47:01;;;;;;;7.70;5.20;;;;;;;24.45;54.18;99186.27;79441;1296;3013313;-67
2023/06/23 20:49:29;;;;;;;8.80;5.30;;;;;;;24.43;54.29;99180.09;78330;1296;3055312;-68
2023/06/23 20:51:56;;;;;;;8.80;4.80;;;;;;;24.37;54.37;99182.13;79424;1296;3018540;-68
2023/06/23 20:54:22;;;;;;;14.80;5.10;;;;;;;24.32;54.55;99176.67;79642;1296;3013597;-68
2023/06/23 20:56:50;;;;;;;6.00;4.70;;;;;;;24.27;54.74;99175.29;78207;1299;3027459;-70
2023/06/23 20:59:17;;;;;;;7.60;5.00;;;;;;;24.27;54.64;99173.17;79472;1300;3013063;-72
2023/06/23 21:01:44;;;;;;;10.90;5.40;;;;;;;24.28;54.49;99173.66;79416;1300;3012633;-67
2023/06/23 21:04:12;;;;;;;14.00;5.80;;;;;;;24.23;54.64;99170.57;78329;1295;3026592;-72
2023/06/23 21:06:39;;;;;;;9.20;4.70;;;;;;;24.19;54.39;99169.13;79448;1296;3012891;-70
2023/06/23 21:09:06;;;;;;;10.40;5.20;;;;;;;24.21;54.28;99172.79;79412;1295;3013182;-72
2023/06/23 21:11:34;;;;;;;9.50;5.30;;;;;;;24.16;54.42;99177.52;78337;1298;3052994;-69
2023/06/23 21:14:01;;;;;;;8.10;4.90;;;;;;;24.15;54.27;99183.48;79536;1295;3013106;-68
2023/06/23 21:16:28;;;;;;;9.80;4.80;;;;;;;24.09;54.33;99180.02;79382;1301;3011685;-68
2023/06/23 21:18:56;;;;;;;9.70;4.70;;;;;;;24.06;54.43;99181.27;78266;1298;3056364;-69
2023/06/23 21:21:23;;;;;;;9.10;5.10;;;;;;;24.02;54.28;99185.69;79430;1296;3019092;-68
2023/06/23 21:23:50;;;;;;;10.90;5.00;;;;;;;23.99;54.20;99181.20;79384;1295;3013650;-71
2023/06/23 21:26:17;;;;;;;6.70;4.70;;;;;;;23.96;54.42;99182.60;78215;1299;3026988;-70
2023/06/23 21:28:44;;;;;;;8.00;5.20;;;;;;;23.91;54.24;99185.14;79400;1295;3019169;-69
2023/06/23 21:31:10;;;;;;;8.10;4.80;;;;;;;23.90;54.26;99188.31;79353;1298;3011466;-69
2023/06/23 21:33:39;;;;;;;7.60;4.60;;;;;;;23.86;54.26;99201.64;78108;1301;3025991;-68
2023/06/23 21:36:05;;;;;;;8.30;4.20;;;;;;;23.81;54.23;99200.98;79366;1296;3013476;-73
2023/06/23 21:38:32;;;;;;;8.50;4.60;;;;;;;23.75;54.38;99210.65;79320;1299;3011981;-71
2023/06/23 21:41:00;;;;;;;7.20;4.20;;;;;;;23.75;54.16;99213.70;78090;1300;3027263;-68
2023/06/23 21:43:27;;;;;;;10.00;4.50;;;;;;;23.78;54.11;99214.98;79228;1299;3012828;-70
2023/06/23 21:45:53;;;;;;;9.40;4.50;;;;;;;23.74;53.86;99213.87;79317;1299;3011640;-73
2023/06/23 21:48:22;;;;;;;7.00;4.50;;;;;;;23.72;53.98;99214.06;78164;1301;3026220;-69
2023/06/23 21:50:48;;;;;;;8.60;4.80;;;;;;;23.70;54.09;99213.42;79540;1295;3012956;-69
2023/06/23 21:53:15;;;;;;;6.30;4.40;;;;;;;23.62;54.35;99215.26;79354;1296;3011403;-71
2023/06/23 21:55:44;;;;;;;8.50;4.40;;;;;;;23.56;54.54;99214.90;78267;1300;3052512;-67
2023/06/23 21:58:10;;;;;;;8.00;4.00;;;;;;;23.60;54.40;99211.91;79445;1300;3013142;-68
2023/06/23 22:00:37;;;;;;;14.50;4.30;;;;;;;23.55;54.83;99215.23;79392;1297;3011891;-69
2023/06/23 22:03:05;;;;;;;8.70;3.90;;;;;;;23.50;54.98;99218.40;78181;1296;3027941;-67
2023/06/23 22:05:32;;;;;;;8.20;3.90;;;;;;;23.48;55.07;99215.66;79335;1298;3013210;-68
2023/06/23 22:07:58;;;;;;;8.20;4.00;;;;;;;23.43;55.22;99219.88;79414;1297;3011392;-68
2023/06/23 22:10:26;;;;;;;11.90;4.10;;;;;;;23.37;55.49;99215.98;78246;1300;3026398;-71
2023/06/23 22:12:53;;;;;;;15.90;4.40;;;;;;;23.27;56.03;99217.60;79443;1299;3013199;-70
2023/06/23 22:15:20;;;;;;;11.60;4.00;;;;;;;23.19;56.42;99217.34;79514;1295;3011636;-69
2023/06/23 22:17:47;;;;;;;6.70;4.60;;;;;;;23.14;56.54;99209.70;78214;1295;3025985;-69
2023/06/23 22:20:14;;;;;;;7.90;3.90;;;;;;;23.12;56.62;99214.23;79449;1295;3013407;-70
2023/06/23 22:22:40;;;;;;;5.90;4.10;;;;;;;23.08;56.59;99213.79;79420;1300;3011631;-68
2023/06/23 22:25:08;;;;;;;6.10;4.30;;;;;;;23.02;56.87;99216.62;78177;1301;3027200;-67
2023/06/23 22:27:35;;;;;;;5.90;3.80;;;;;;;22.99;57.03;99210.71;79286;1300;3013091;-65
2023/06/23 22:30:03;;;;;;;8.70;3.90;;;;;;;22.91;57.15;99218.55;79272;1295;3011564;-67
2023/06/23 22:32:31;;;;;;;6.50;4.20;;;;;;;22.86;57.01;99218.08;78098;1300;3056634;-68
2023/06/23 22:34:57;;;;;;;6.70;4.20;;;;;;;22.84;57.02;99216.89;79454;1296;3013160;-69
2023/06/23 22:37:25;;;;;;;9.30;4.30;;;;;;;22.83;57.04;99211.84;79323;1295;3012317;-69
2023/06/23 22:39:53;;;;;;;10.50;4.10;;;;;;;22.71;57.61;99215.04;78169;1300;3052242;-69
2023/06/23 22:42:22;;;;;;;8.90;4.40;;;;;;;22.67;57.67;99213.32;79610;1295;3013889;-71
2023/06/23 22:44:51;;;;;;;9.80;4.30;;;;;;;22.60;57.97;99214.59;78957;1301;3013531;-71
2023/06/23 22:47:20;;;;;;;7.60;3.70;;;;;;;22.51;58.13;99214.30;79398;1295;3013405;-70
2023/06/23 22:49:47;;;;;;;8.60;4.50;;;;;;;22.42;58.56;99218.83;79428;1295;3012183;-71
2023/06/23 22:52:15;;;;;;;6.80;4.10;;;;;;;22.26;59.07;99218.89;78188;1298;3054297;-70
2023/06/23 22:54:41;;;;;;;4.70;3.80;;;;;;;22.22;59.28;99212.85;79505;1301;3013612;-70
2023/06/23 22:57:08;;;;;;;9.50;4.00;;;;;;;22.22;59.29;99213.23;79364;1297;3013162;-69
2023/06/23 22:59:36;;;;;;;9.30;4.20;;;;;;;22.15;59.52;99212.61;78166;1295;3025716;-70
2023/06/23 23:02:03;;;;;;;8.50;4.10;;;;;;;22.05;59.75;99200.45;81962;1297;3018379;-68
2023/06/23 23:04:29;;;;;;;8.70;4.50;;;;;;;22.05;59.92;99201.29;81950;1296;3011170;-68
2023/06/23 23:06:57;;;;;;;6.00;3.90;;;;;;;22.07;59.66;99209.60;80707;1296;3027055;-68
2023/06/23 23:09:24;;;;;;;7.10;4.10;;;;;;;22.04;59.53;99200.29;81999;1297;3018155;-69
2023/06/23 23:11:52;;;;;;;10.40;3.60;;;;;;;21.91;60.21;99201.38;81809;1300;3011470;-70
2023/06/23 23:14:20;;;;;;;12.80;4.60;;;;;;;21.96;59.81;99202.06;80722;1297;3067227;-69
2023/06/23 23:16:46;;;;;;;12.80;4.00;;;;;;;21.90;60.11;99208.40;82005;1296;3012406;-67
2023/06/23 23:19:13;;;;;;;6.30;4.00;;;;;;;21.92;59.93;99199.47;81983;1297;3011565;-66
2023/06/23 23:21:40;;;;;;;5.70;4.00;;;;;;;21.90;60.01;99203.11;80679;1297;3026214;-67
2023/06/23 23:24:18;;;;;;;7.60;4.00;;;;;;;21.81;60.23;99205.69;82003;1297;3018397;-66
2023/06/23 23:26:48;;;;;;;9.00;4.60;;;;;;;21.75;60.38;99207.31;80737;1297;3052258;-66
2023/06/23 23:29:19;;;;;;;15.50;4.70;;;;;;;21.79;60.01;99210.37;81987;1296;3011135;-69
2023/06/23 23:31:46;;;;;;;11.80;4.20;;;;;;;21.68;60.53;99216.91;80711;1295;3050668;-68
2023/06/23 23:34:13;;;;;;;7.60;4.40;;;;;;;21.67;60.48;99210.08;81899;1297;3018418;-68
2023/06/23 23:36:43;;;;;;;8.70;4.80;;;;;;;21.71;60.28;99216.65;81988;1296;3011437;-67
2023/06/23 23:39:11;;;;;;;12.00;4.80;;;;;;;21.63;60.45;99221.02;80586;1296;3049767;-67